AIRPORT_AIRPORT_METAR
METAR FOR ENCN
ADDS - METARS form results

(1914 UTC 18 October 2021)
Data provider http://aviationweather.gov/metar/data/
 
METAR text: ENCN 181850Z 08005KT 040V150 9999 FEW020 BKN037 08/03 Q1020
Conditions at: ENCN (KRISTIANSAND/KJE, NO) observed 1850 UTC 18 October 2021
Temperature: 8.0°C (46°F)
Dewpoint: 3.0°C (37°F) [RH = 71%]
Pressure (altimeter): 30.12 inches Hg (1020.0 mb)
Winds: from the E (80 degrees) at 6 MPH (5 knots; 2.6 m/s)
Visibility: 6 or more miles (10+ km)
Ceiling: 3700 feet AGL
Clouds: few clouds at 2000 feet AGL
broken clouds at 3700 feet AGL
Weather: no significant weather observed at this time

METAR text: ENCN 181820Z 05007KT 9999 FEW020 BKN039 08/04 Q1020
Conditions at: ENCN (KRISTIANSAND/KJE, NO) observed 1820 UTC 18 October 2021
Temperature: 8.0°C (46°F)
Dewpoint: 4.0°C (39°F) [RH = 76%]
Pressure (altimeter): 30.12 inches Hg (1020.0 mb)
Winds: from the NE (50 degrees) at 8 MPH (7 knots; 3.6 m/s)
Visibility: 6 or more miles (10+ km)
Ceiling: 3900 feet AGL
Clouds: few clouds at 2000 feet AGL
broken clouds at 3900 feet AGL
Weather: no significant weather observed at this time

Forecast for: ENCN (KRISTIANSAND/KJE, NO)
Text: TAF ENCN 181400Z 1815/1822 07008KT 9999 -RA SCT025 BKN040
Forecast period: 1500 to 2200 UTC 18 October 2021
Forecast type: FROM: standard forecast or significant change
Winds: from the ENE (70 degrees) at 9 MPH (8 knots; 4.1 m/s)
Visibility: 6 or more miles (10+ km)
Ceiling: 4000 feet AGL
Clouds: scattered clouds at 2500 feet AGL
broken clouds at 4000 feet AGL
Weather: -RA  (light rain)

 AIRPORT_AIRPORT_MAP

 AIRPORT_RUNWAY_INFO
AIRPORT_RUNWAY 04 AIRPORT_RUNWAY_LENGTH 6660 ft AIRPORT_RUNWAY_WIDTH 148 ft
AIRPORT_RUNWAY_ELEVATION 41 ft AIRPORT_RUNWAY_THRESHOLD 394 ft AIRPORT_RUNWAY_HEADING 35
AIRPORT_RUNWAY 22 AIRPORT_RUNWAY_LENGTH 6660 ft AIRPORT_RUNWAY_WIDTH 148 ft
AIRPORT_RUNWAY_ELEVATION 52 ft AIRPORT_RUNWAY_THRESHOLD 623 ft AIRPORT_RUNWAY_HEADING 215

 AIRPORT_AIRPORT_FREQUENCIES
AIRPORT_AIRPORT_NAVAIDS_TYPE ATIS AIRPORT_AIRPORT_NAVAIDS_NAME INFO AIRPORT_AIRPORT_NAVAIDS_FREQ 124.475 MHZ
AIRPORT_AIRPORT_NAVAIDS_TYPE TWR AIRPORT_AIRPORT_NAVAIDS_NAME TWR AIRPORT_AIRPORT_NAVAIDS_FREQ 118.1 MHZ

 AIRPORT_AIRPORT_NAVAIDS
AIRPORT_AIRPORT_NAVAIDS_TYPE NDB AIRPORT_AIRPORT_NAVAIDS_NAME Odderoy AIRPORT_AIRPORT_NAVAIDS_FREQ 372 KHZ
AIRPORT_AIRPORT_NAVAIDS_TYPE VOR-DME AIRPORT_AIRPORT_NAVAIDS_NAME Svensheia AIRPORT_AIRPORT_NAVAIDS_FREQ 112100 KHZ



Copyright © 2005-2021 - Virtuel Air Alsace - Tous droits réservés